Time;durP1;ratioP1;P1;durP2;ratioP2;P2;SDS_P1;SDS_P2;PMS_P1;PMS_P2;Temp;Humidity;BMP_temperature;BMP_pressure;BME280_temperature;BME280_humidity;BME280_pressure;Samples;Min_cycle;Max_cycle;Signal;HPM_P1;HPM_P2
2023/10/26 00:00:56;;;;;;;65.00;33.30;;;;;;;11.07;100.00;98916.01;107107;1276;107811;-82
2023/10/26 00:03:42;;;;;;;61.70;30.90;;;;;;;11.08;100.00;98913.88;106937;1276;97840;-83
2023/10/26 00:06:27;;;;;;;60.70;30.00;;;;;;;11.08;100.00;98916.52;106952;1273;95942;-83
2023/10/26 00:09:12;;;;;;;62.70;31.20;;;;;;;11.09;100.00;98916.64;107080;1273;95833;-83
2023/10/26 00:11:57;;;;;;;62.10;31.00;;;;;;;11.10;100.00;98918.80;107152;1273;102737;-83
2023/10/26 00:14:43;;;;;;;59.80;29.40;;;;;;;11.10;100.00;98918.02;106970;1275;99219;-83
2023/10/26 00:17:28;;;;;;;67.10;31.00;;;;;;;11.10;100.00;98916.91;107117;1273;99027;-84
2023/10/26 00:20:14;;;;;;;61.80;31.50;;;;;;;11.11;100.00;98907.86;106809;1272;95563;-83
2023/10/26 00:22:59;;;;;;;62.50;30.60;;;;;;;11.10;100.00;98900.29;107013;1273;95628;-84
2023/10/26 00:25:44;;;;;;;66.00;30.50;;;;;;;11.11;100.00;98902.34;107075;1273;101392;-83
2023/10/26 00:28:29;;;;;;;64.60;31.80;;;;;;;11.13;100.00;98899.17;106902;1272;99201;-83
2023/10/26 00:31:14;;;;;;;63.10;31.20;;;;;;;11.14;100.00;98893.73;106896;1273;98921;-82
2023/10/26 00:33:59;;;;;;;65.70;31.20;;;;;;;11.15;100.00;98895.41;107077;1275;95472;-83
2023/10/26 00:36:45;;;;;;;66.60;32.40;;;;;;;11.16;100.00;98895.44;106972;1275;95558;-82
2023/10/26 00:39:31;;;;;;;66.40;31.50;;;;;;;11.18;100.00;98894.14;107031;1274;101588;-83
2023/10/26 00:42:16;;;;;;;63.90;31.80;;;;;;;11.20;100.00;98891.34;107093;1273;100297;-82
2023/10/26 00:45:02;;;;;;;63.30;31.90;;;;;;;11.21;100.00;98889.51;106821;1273;99143;-83
2023/10/26 00:47:47;;;;;;;62.30;31.20;;;;;;;11.22;100.00;98886.10;106878;1273;95526;-84
2023/10/26 00:50:33;;;;;;;59.00;30.40;;;;;;;11.24;100.00;98884.20;107047;1272;95359;-82
2023/10/26 00:53:20;;;;;;;62.50;30.90;;;;;;;11.25;100.00;98879.25;106854;1273;101746;-83
2023/10/26 00:56:06;;;;;;;57.70;29.20;;;;;;;11.26;100.00;98882.44;107072;1273;99247;-84
2023/10/26 00:58:52;;;;;;;60.20;31.20;;;;;;;11.26;100.00;98882.82;106998;1275;97871;-83
2023/10/26 01:01:37;;;;;;;56.70;28.90;;;;;;;11.27;100.00;98884.83;106863;1279;96022;-83
2023/10/26 01:04:22;;;;;;;64.80;30.30;;;;;;;11.27;100.00;98884.08;107130;1273;95226;-84
2023/10/26 01:07:08;;;;;;;55.90;28.30;;;;;;;11.27;100.00;98881.77;107066;1273;101375;-83
2023/10/26 01:09:53;;;;;;;56.20;27.80;;;;;;;11.27;100.00;98880.00;107046;1273;99898;-83
2023/10/26 01:12:39;;;;;;;53.40;28.60;;;;;;;11.28;100.00;98876.53;107005;1273;98538;-83
2023/10/26 01:15:24;;;;;;;54.80;29.60;;;;;;;11.26;100.00;98868.89;107003;1275;95429;-84
2023/10/26 01:18:10;;;;;;;55.20;29.40;;;;;;;11.26;100.00;98866.66;107064;1273;95521;-83
2023/10/26 01:20:56;;;;;;;56.30;29.30;;;;;;;11.25;100.00;98869.11;106896;1273;102209;-83
2023/10/26 01:23:40;;;;;;;57.10;28.30;;;;;;;11.24;100.00;98871.77;107053;1273;99316;-83
2023/10/26 01:26:25;;;;;;;59.40;31.50;;;;;;;11.22;100.00;98873.98;107059;1273;99005;-85
2023/10/26 01:29:11;;;;;;;62.40;30.40;;;;;;;11.22;100.00;98871.19;107066;1275;95676;-84
2023/10/26 01:31:56;;;;;;;58.00;28.90;;;;;;;11.22;100.00;98868.63;107051;1273;95797;-84
2023/10/26 01:34:42;;;;;;;55.80;28.20;;;;;;;11.23;100.00;98868.04;107043;1273;101464;-84
2023/10/26 01:37:27;;;;;;;47.30;27.10;;;;;;;11.22;100.00;98867.27;107019;1273;99578;-85
2023/10/26 01:40:12;;;;;;;52.20;29.00;;;;;;;11.21;100.00;98870.50;106884;1276;97685;-84
2023/10/26 01:42:57;;;;;;;55.00;28.60;;;;;;;11.17;100.00;98866.15;106847;1273;95862;-84
2023/10/26 01:45:43;;;;;;;54.40;28.60;;;;;;;11.15;100.00;98859.17;106977;1273;95385;-84
2023/10/26 01:48:28;;;;;;;48.70;26.50;;;;;;;11.12;100.00;98860.34;107044;1274;102212;-84
2023/10/26 01:51:13;;;;;;;49.40;27.10;;;;;;;11.10;100.00;98860.18;107062;1273;99788;-85
2023/10/26 01:53:58;;;;;;;44.20;25.90;;;;;;;11.07;100.00;98865.37;106892;1273;99055;-84
2023/10/26 01:56:44;;;;;;;52.00;26.30;;;;;;;11.06;100.00;98863.95;106995;1275;95677;-84
2023/10/26 01:59:29;;;;;;;45.00;25.40;;;;;;;11.06;100.00;98863.30;106856;1273;95385;-83
2023/10/26 02:02:14;;;;;;;43.20;25.90;;;;;;;11.06;100.00;98860.83;107065;1273;101414;-83
2023/10/26 02:04:59;;;;;;;45.00;25.40;;;;;;;11.05;100.00;98859.98;107009;1272;100423;-83
2023/10/26 02:07:45;;;;;;;40.50;24.60;;;;;;;11.04;100.00;98862.02;107034;1273;99142;-84
2023/10/26 02:10:30;;;;;;;41.90;24.20;;;;;;;11.02;100.00;98861.44;107121;1273;95675;-83
2023/10/26 02:13:15;;;;;;;45.00;23.70;;;;;;;11.00;100.00;98857.42;107009;1274;95896;-83
2023/10/26 02:16:02;;;;;;;40.00;23.50;;;;;;;10.97;100.00;98855.70;106919;1273;102735;-82
2023/10/26 02:18:48;;;;;;;40.10;23.80;;;;;;;10.94;100.00;98850.48;107038;1273;100441;-83
2023/10/26 02:21:35;;;;;;;37.10;22.40;;;;;;;10.90;100.00;98856.02;106886;1275;98946;-82
2023/10/26 02:24:20;;;;;;;41.10;23.50;;;;;;;10.85;100.00;98855.15;107022;1273;95594;-83
2023/10/26 02:27:05;;;;;;;40.00;22.50;;;;;;;10.82;100.00;98854.25;107101;1273;95521;-84
2023/10/26 02:29:50;;;;;;;32.30;20.40;;;;;;;10.79;100.00;98857.22;107077;1273;101560;-84
2023/10/26 02:32:35;;;;;;;35.20;20.80;;;;;;;10.73;100.00;98856.95;107135;1273;100445;-83
2023/10/26 02:35:20;;;;;;;34.70;21.60;;;;;;;10.69;100.00;98849.77;107018;1273;97828;-83
2023/10/26 02:38:07;;;;;;;31.50;19.90;;;;;;;10.63;100.00;98848.73;106963;1274;95450;-84
2023/10/26 02:40:52;;;;;;;31.90;19.40;;;;;;;10.56;100.00;98849.63;107059;1275;97057;-84
2023/10/26 02:43:38;;;;;;;26.00;17.10;;;;;;;10.51;100.00;98848.88;106865;1275;102263;-84
2023/10/26 02:46:23;;;;;;;29.90;19.40;;;;;;;10.46;100.00;98846.60;106993;1273;99885;-85
2023/10/26 02:49:08;;;;;;;29.50;18.90;;;;;;;10.42;100.00;98845.20;106988;1273;98873;-84
2023/10/26 02:51:54;;;;;;;28.00;18.20;;;;;;;10.37;100.00;98841.97;107031;1275;95726;-84
2023/10/26 02:54:39;;;;;;;30.20;19.60;;;;;;;10.33;100.00;98840.95;107073;1273;96229;-84
2023/10/26 02:57:24;;;;;;;28.70;19.40;;;;;;;10.29;100.00;98838.66;107052;1273;102468;-85
2023/10/26 03:00:12;;;;;;;30.70;20.20;;;;;;;10.25;100.00;98839.60;107079;1276;99125;-84
2023/10/26 03:02:57;;;;;;;25.00;17.50;;;;;;;10.20;100.00;98836.73;106930;1273;99090;-84
2023/10/26 03:05:43;;;;;;;23.40;16.90;;;;;;;10.16;100.00;98833.88;106850;1275;95697;-84
2023/10/26 03:08:28;;;;;;;24.30;16.80;;;;;;;10.12;100.00;98828.48;106957;1273;95626;-85
2023/10/26 03:11:13;;;;;;;25.10;17.10;;;;;;;10.08;100.00;98826.66;107105;1273;102799;-84
2023/10/26 03:13:59;;;;;;;23.90;16.90;;;;;;;10.04;100.00;98823.17;106889;1273;100406;-85
2023/10/26 03:16:44;;;;;;;24.50;16.60;;;;;;;9.99;100.00;98824.65;107067;1273;97830;-84
2023/10/26 03:19:29;;;;;;;27.30;17.30;;;;;;;9.95;100.00;98821.81;107081;1273;95281;-85
2023/10/26 03:22:15;;;;;;;24.40;16.90;;;;;;;9.93;100.00;98819.49;107051;1274;95625;-84
2023/10/26 03:25:00;;;;;;;27.30;18.20;;;;;;;9.90;100.00;98825.91;107087;1274;101441;-85
2023/10/26 03:27:46;;;;;;;25.50;17.80;;;;;;;9.88;100.00;98821.83;107027;1273;99199;-84
2023/10/26 03:30:32;;;;;;;23.60;16.80;;;;;;;9.86;100.00;98818.56;107051;1273;97726;-84
2023/10/26 03:33:17;;;;;;;27.20;17.50;;;;;;;9.84;100.00;98818.40;106991;1273;95585;-84
2023/10/26 03:36:03;;;;;;;25.80;17.20;;;;;;;9.83;100.00;98815.63;107095;1273;95855;-85
2023/10/26 03:38:51;;;;;;;27.20;18.50;;;;;;;9.81;100.00;98812.20;107080;1273;102412;-84
2023/10/26 03:41:37;;;;;;;28.00;19.00;;;;;;;9.80;100.00;98809.46;107000;1273;100321;-85
2023/10/26 03:44:22;;;;;;;25.40;18.80;;;;;;;9.79;100.00;98804.96;106880;1273;97795;-84
2023/10/26 03:47:07;;;;;;;27.20;18.10;;;;;;;9.77;100.00;98795.63;106871;1273;95321;-84
2023/10/26 03:49:53;;;;;;;27.90;18.50;;;;;;;9.75;100.00;98791.02;107057;1276;95992;-85
2023/10/26 03:52:38;;;;;;;28.70;19.50;;;;;;;9.72;100.00;98789.03;106876;1273;101526;-84
2023/10/26 03:55:23;;;;;;;24.90;17.60;;;;;;;9.71;100.00;98792.13;106885;1272;99456;-85
2023/10/26 03:58:12;;;;;;;24.40;16.90;;;;;;;9.67;100.00;98791.27;106984;1273;99110;-84
2023/10/26 04:00:57;;;;;;;27.30;17.90;;;;;;;9.63;100.00;98790.76;106991;1276;95339;-85
2023/10/26 04:03:43;;;;;;;23.60;17.40;;;;;;;9.59;100.00;98782.17;107033;1273;95397;-84
2023/10/26 04:06:30;;;;;;;24.30;17.00;;;;;;;9.55;100.00;98770.63;107100;1275;102142;-84
2023/10/26 04:09:15;;;;;;;27.10;16.80;;;;;;;9.51;100.00;98768.41;107125;1275;99332;-85
2023/10/26 04:12:00;;;;;;;24.80;16.90;;;;;;;9.47;100.00;98769.23;107086;1273;99117;-84
2023/10/26 04:14:45;;;;;;;32.80;16.20;;;;;;;9.42;100.00;98766.58;107045;1273;95518;-84
2023/10/26 04:17:31;;;;;;;20.70;14.40;;;;;;;9.37;100.00;98769.19;106966;1276;95674;-84
2023/10/26 04:20:16;;;;;;;19.00;14.30;;;;;;;9.30;100.00;98767.34;107124;1273;101371;-84
2023/10/26 04:23:01;;;;;;;17.90;13.50;;;;;;;9.25;100.00;98761.68;107175;1273;99285;-85
2023/10/26 04:25:48;;;;;;;16.80;11.40;;;;;;;9.20;100.00;98755.41;107007;1273;98701;-84
2023/10/26 04:28:33;;;;;;;25.20;12.40;;;;;;;9.16;100.00;98751.42;107073;1273;95916;-84
2023/10/26 04:31:20;;;;;;;14.50;11.80;;;;;;;9.11;100.00;98747.37;107092;1273;95733;-84
2023/10/26 04:34:05;;;;;;;17.40;12.40;;;;;;;9.07;100.00;98746.63;107104;1273;101537;-83
2023/10/26 04:36:51;;;;;;;15.20;11.80;;;;;;;9.04;100.00;98739.08;107024;1276;99256;-83
2023/10/26 04:39:36;;;;;;;16.20;11.90;;;;;;;9.03;100.00;98738.17;106986;1273;99025;-83
2023/10/26 04:42:22;;;;;;;30.40;12.70;;;;;;;9.04;100.00;98735.25;107055;1273;95521;-83
2023/10/26 04:45:07;;;;;;;28.00;14.00;;;;;;;9.02;100.00;98729.71;107089;1276;95825;-83
2023/10/26 04:47:52;;;;;;;43.40;14.30;;;;;;;8.99;100.00;98725.60;106984;1275;101460;-83
2023/10/26 04:50:37;;;;;;;61.60;13.70;;;;;;;8.96;100.00;98720.91;106934;1273;100172;-84
2023/10/26 04:53:23;;;;;;;22.50;13.90;;;;;;;8.92;100.00;98720.55;107086;1274;99203;-84
2023/10/26 04:56:11;;;;;;;17.60;12.60;;;;;;;8.90;100.00;98725.34;106972;1276;95516;-83
2023/10/26 04:58:56;;;;;;;26.40;13.70;;;;;;;8.89;100.00;98720.66;106973;1273;95497;-84
2023/10/26 05:01:42;;;;;;;18.20;13.40;;;;;;;8.89;100.00;98724.11;107069;1275;101436;-83
2023/10/26 05:04:27;;;;;;;18.20;13.60;;;;;;;8.88;100.00;98720.42;106894;1276;99239;-83
2023/10/26 05:07:12;;;;;;;19.50;14.30;;;;;;;8.89;100.00;98717.45;107023;1273;97841;-84
2023/10/26 05:09:57;;;;;;;21.80;15.30;;;;;;;8.91;100.00;98713.72;106794;1273;95629;-83
2023/10/26 05:12:42;;;;;;;20.00;14.90;;;;;;;8.94;100.00;98715.79;107054;1275;95291;-83
2023/10/26 05:15:27;;;;;;;21.30;15.70;;;;;;;8.96;100.00;98717.45;106933;1273;101493;-82
2023/10/26 05:18:13;;;;;;;22.00;16.20;;;;;;;8.99;100.00;98719.20;106835;1273;99150;-84
2023/10/26 05:20:59;;;;;;;21.10;15.70;;;;;;;9.02;100.00;98719.45;106972;1273;98873;-83
2023/10/26 05:23:46;;;;;;;26.20;16.30;;;;;;;9.05;100.00;98722.01;106923;1273;95687;-84
2023/10/26 05:26:32;;;;;;;26.90;18.60;;;;;;;9.09;100.00;98717.77;107033;1273;95603;-84
2023/10/26 05:29:17;;;;;;;28.80;19.80;;;;;;;9.13;100.00;98716.98;106931;1275;101493;-84
2023/10/26 05:32:03;;;;;;;32.80;21.30;;;;;;;9.15;100.00;98710.95;106985;1275;99428;-84
2023/10/26 05:34:48;;;;;;;32.60;20.40;;;;;;;9.16;100.00;98708.80;107051;1276;99077;-84
2023/10/26 05:37:34;;;;;;;32.00;19.90;;;;;;;9.15;100.00;98705.13;107083;1273;95567;-84
2023/10/26 05:40:19;;;;;;;49.30;29.50;;;;;;;9.14;100.00;98707.09;107073;1275;95592;-84
2023/10/26 05:43:04;;;;;;;50.80;28.60;;;;;;;9.15;100.00;98708.13;106870;1276;101480;-84
2023/10/26 05:45:50;;;;;;;56.70;27.70;;;;;;;9.15;100.00;98704.92;107099;1273;100214;-84
2023/10/26 05:48:35;;;;;;;54.40;28.20;;;;;;;9.16;100.00;98705.85;106976;1273;97876;-83
2023/10/26 05:51:21;;;;;;;43.90;25.20;;;;;;;9.18;100.00;98703.58;107069;1273;95896;-84
2023/10/26 05:54:06;;;;;;;44.50;24.80;;;;;;;9.20;100.00;98700.71;107047;1273;95836;-84
2023/10/26 05:56:51;;;;;;;42.40;24.50;;;;;;;9.21;100.00;98703.04;106970;1273;103117;-83
2023/10/26 05:59:37;;;;;;;36.60;22.50;;;;;;;9.23;100.00;98702.80;107055;1273;99235;-84
2023/10/26 06:02:23;;;;;;;33.00;22.00;;;;;;;9.23;100.00;98697.84;106904;1273;99113;-84
2023/10/26 06:05:08;;;;;;;32.30;21.00;;;;;;;9.23;100.00;98697.80;107049;1279;95411;-84
2023/10/26 06:07:53;;;;;;;32.60;21.40;;;;;;;9.24;100.00;98696.06;107090;1274;95830;-84
2023/10/26 06:10:38;;;;;;;33.00;21.20;;;;;;;9.27;100.00;98703.66;106998;1273;103261;-84
2023/10/26 06:13:24;;;;;;;50.30;29.90;;;;;;;9.28;100.00;98703.12;106957;1273;100189;-84
2023/10/26 06:16:13;;;;;;;47.10;32.10;;;;;;;9.28;100.00;98705.75;106905;1273;97782;-83
2023/10/26 06:18:58;;;;;;;36.60;24.30;;;;;;;9.28;100.00;98706.85;106876;1282;95583;-84
2023/10/26 06:21:43;;;;;;;41.50;23.40;;;;;;;9.28;100.00;98713.55;107010;1273;95872;-84
2023/10/26 06:24:28;;;;;;;49.40;25.00;;;;;;;9.29;100.00;98707.70;106987;1273;101416;-83
2023/10/26 06:27:14;;;;;;;45.10;25.20;;;;;;;9.31;100.00;98708.50;106815;1273;99506;-84
2023/10/26 06:29:59;;;;;;;36.10;22.60;;;;;;;9.32;100.00;98715.79;107108;1273;99244;-84
2023/10/26 06:32:44;;;;;;;37.10;22.80;;;;;;;9.34;100.00;98720.48;107123;1275;95613;-84
2023/10/26 06:35:30;;;;;;;39.30;23.00;;;;;;;9.37;100.00;98714.69;107111;1272;95504;-83
2023/10/26 06:38:15;;;;;;;38.50;22.10;;;;;;;9.39;100.00;98702.09;107065;1273;101505;-84
2023/10/26 06:41:00;;;;;;;36.40;24.50;;;;;;;9.40;100.00;98687.55;107059;1273;100456;-84
2023/10/26 06:43:45;;;;;;;38.40;22.90;;;;;;;9.41;100.00;98678.61;107026;1275;97826;-84
2023/10/26 06:46:31;;;;;;;36.80;23.20;;;;;;;9.43;100.00;98671.39;107003;1274;95635;-84
2023/10/26 06:49:16;;;;;;;39.10;24.70;;;;;;;9.45;100.00;98670.45;106896;1279;95842;-84
2023/10/26 06:52:02;;;;;;;39.80;26.10;;;;;;;9.48;100.00;98673.26;106946;1276;102608;-84
2023/10/26 06:54:51;;;;;;;44.10;28.50;;;;;;;9.50;100.00;98673.98;106880;1273;100463;-84
2023/10/26 06:57:36;;;;;;;38.80;26.40;;;;;;;9.54;100.00;98672.40;107006;1276;97719;-84
2023/10/26 07:00:21;;;;;;;36.80;24.20;;;;;;;9.57;100.00;98672.23;106892;1273;95426;-81
2023/10/26 07:03:07;;;;;;;38.20;25.20;;;;;;;9.61;100.00;98672.22;107290;1273;95299;-91
2023/10/26 07:05:53;;;;;;;37.40;26.40;;;;;;;9.65;100.00;98674.46;106848;1273;103080;-89
2023/10/26 07:08:39;;;;;;;38.30;26.40;;;;;;;9.68;100.00;98677.02;107217;1273;99857;-90
2023/10/26 07:11:25;;;;;;;38.80;25.40;;;;;;;9.70;100.00;98681.18;106997;1276;98958;-90
2023/10/26 07:14:11;;;;;;;41.50;25.40;;;;;;;9.73;100.00;98687.09;106886;1273;95348;-91
2023/10/26 07:16:56;;;;;;;40.60;25.20;;;;;;;9.76;100.00;98685.83;106951;1273;95594;-91
2023/10/26 07:19:42;;;;;;;63.10;32.80;;;;;;;9.78;100.00;98681.18;106913;1273;102880;-88
2023/10/26 07:22:27;;;;;;;53.40;30.70;;;;;;;9.79;100.00;98678.56;107026;1273;99271;-89
2023/10/26 07:25:13;;;;;;;57.00;30.80;;;;;;;9.82;100.00;98673.46;106878;1273;97971;-86
2023/10/26 07:27:59;;;;;;;45.70;27.50;;;;;;;9.85;100.00;98670.71;106797;1276;95103;-86
2023/10/26 07:30:44;;;;;;;46.80;28.70;;;;;;;9.89;100.00;98668.57;107018;1273;95154;-87
2023/10/26 07:33:30;;;;;;;48.10;28.60;;;;;;;9.93;100.00;98666.15;106956;1273;102153;-87
2023/10/26 07:36:15;;;;;;;47.00;28.40;;;;;;;9.96;100.00;98669.59;107180;1275;99194;-81
2023/10/26 07:39:00;;;;;;;49.90;29.30;;;;;;;9.98;100.00;98668.11;107214;1273;98210;-81
2023/10/26 07:41:45;;;;;;;40.90;27.30;;;;;;;10.02;100.00;98669.11;107216;1273;95653;-81
2023/10/26 07:44:33;;;;;;;45.40;28.00;;;;;;;10.06;100.00;98672.10;107236;1275;95396;-81
2023/10/26 07:47:19;;;;;;;44.50;26.90;;;;;;;10.11;100.00;98676.79;107198;1276;101425;-81
2023/10/26 07:50:05;;;;;;;45.40;28.90;;;;;;;10.14;100.00;98677.45;107245;1273;99891;-87
2023/10/26 07:52:51;;;;;;;40.10;26.40;;;;;;;10.16;100.00;98664.49;106893;1279;97794;-82
2023/10/26 07:55:39;;;;;;;41.20;26.40;;;;;;;10.20;100.00;98655.86;107018;1278;96065;-90
2023/10/26 07:58:27;;;;;;;42.50;27.00;;;;;;;10.23;100.00;98649.22;106796;1273;95076;-90
2023/10/26 08:01:17;;;;;;;45.60;28.60;;;;;;;10.28;100.00;98644.61;106865;1273;110268;-89
2023/10/26 08:04:03;;;;;;;45.50;30.00;;;;;;;10.33;100.00;98649.23;106835;1280;99215;-91
2023/10/26 08:06:49;;;;;;;43.90;28.80;;;;;;;10.38;100.00;98650.25;106880;1273;98538;-90
2023/10/26 08:09:37;;;;;;;66.50;46.60;;;;;;;10.42;100.00;98642.81;106803;1279;95064;-80
2023/10/26 08:12:22;;;;;;;49.50;32.60;;;;;;;10.46;100.00;98635.30;107137;1274;94935;-81
2023/10/26 08:15:09;;;;;;;68.70;47.10;;;;;;;10.53;100.00;98632.39;107267;1273;102479;-88
2023/10/26 08:17:54;;;;;;;50.90;35.20;;;;;;;10.59;100.00;98633.06;106905;1273;100217;-88
2023/10/26 08:20:40;;;;;;;39.80;28.70;;;;;;;10.64;100.00;98626.45;106924;1279;98960;-84
2023/10/26 08:23:29;;;;;;;45.40;31.30;;;;;;;10.69;100.00;98629.23;107207;1273;95639;-90
2023/10/26 08:26:15;;;;;;;40.40;28.40;;;;;;;10.73;100.00;98628.45;106865;1273;95680;-87
2023/10/26 08:29:00;;;;;;;43.40;29.50;;;;;;;10.77;100.00;98625.33;106933;1274;102555;-80
2023/10/26 08:31:46;;;;;;;39.80;28.20;;;;;;;10.81;100.00;98621.61;107102;1277;99012;-80
2023/10/26 08:34:31;;;;;;;54.90;38.90;;;;;;;10.85;100.00;98614.62;107193;1276;97761;-80
2023/10/26 08:37:17;;;;;;;42.20;30.70;;;;;;;10.89;100.00;98614.43;107262;1276;95831;-88
2023/10/26 08:40:04;;;;;;;42.40;26.50;;;;;;;10.92;100.00;98621.14;106872;1273;95871;-88
2023/10/26 08:42:50;;;;;;;38.40;26.10;;;;;;;10.95;100.00;98619.85;107034;1274;103252;-90
2023/10/26 08:45:37;;;;;;;37.00;26.70;;;;;;;10.98;100.00;98610.49;106952;1273;99307;-89
2023/10/26 08:48:50;;;;;;;38.10;27.30;;;;;;;11.03;100.00;98608.65;106949;1274;97853;-92
2023/10/26 08:52:07;;;;;;;40.30;29.00;;;;;;;11.06;100.00;98599.45;107424;1272;95654;-89
2023/10/26 08:54:52;;;;;;;36.30;27.10;;;;;;;11.09;100.00;98593.46;106967;1272;95761;-80
2023/10/26 08:57:48;;;;;;;39.30;28.20;;;;;;;11.12;100.00;98596.63;107268;1273;101405;-80
2023/10/26 09:00:41;;;;;;;42.10;29.00;;;;;;;11.16;100.00;98600.55;107153;1272;99298;-79
2023/10/26 09:03:26;;;;;;;46.60;32.70;;;;;;;11.17;100.00;98601.23;106943;1274;97976;-78
2023/10/26 09:06:14;;;;;;;41.60;30.50;;;;;;;11.19;100.00;98601.52;107173;1273;95574;-92
2023/10/26 09:09:07;;;;;;;43.90;31.60;;;;;;;11.20;100.00;98603.05;107123;1272;94989;-92
2023/10/26 09:11:53;;;;;;;43.90;29.90;;;;;;;11.22;100.00;98591.19;106894;1273;102727;-86
2023/10/26 09:14:39;;;;;;;39.30;29.20;;;;;;;11.23;100.00;98586.50;107280;1273;99107;-90
2023/10/26 09:17:29;;;;;;;67.80;49.30;;;;;;;11.23;100.00;98587.20;106944;1273;99221;-89
2023/10/26 09:20:34;;;;;;;52.50;37.00;;;;;;;11.23;100.00;98588.05;107151;1274;95815;-92
2023/10/26 09:23:36;;;;;;;38.50;27.00;;;;;;;11.21;100.00;98573.44;107314;1272;95244;-91
2023/10/26 09:26:42;;;;;;;37.60;24.80;;;;;;;11.19;100.00;98575.32;107356;1273;102635;-93
2023/10/26 09:29:41;;;;;;;37.30;25.90;;;;;;;11.19;100.00;98578.80;107030;1273;107772;-92
2023/10/26 09:32:35;;;;;;;37.80;28.20;;;;;;;11.19;100.00;98579.17;106960;1279;98873;-88
2023/10/26 09:35:28;;;;;;;48.20;34.40;;;;;;;11.20;100.00;98584.13;107107;1273;95847;-89
2023/10/26 09:38:17;;;;;;;46.80;33.80;;;;;;;11.20;100.00;98583.29;107181;1272;95779;-82
2023/10/26 09:41:06;;;;;;;53.40;37.40;;;;;;;11.20;100.00;98581.73;107358;1273;101413;-81
2023/10/26 09:43:51;;;;;;;55.80;37.70;;;;;;;11.22;100.00;98578.16;107125;1273;99189;-81
2023/10/26 09:46:36;;;;;;;48.60;34.60;;;;;;;11.26;100.00;98572.02;107327;1273;97797;-81
2023/10/26 09:49:23;;;;;;;46.20;31.70;;;;;;;11.31;100.00;98572.96;107293;1272;95748;-82
2023/10/26 09:52:11;;;;;;;43.40;30.00;;;;;;;11.35;100.00;98574.11;107346;1276;95524;-81
2023/10/26 09:54:57;;;;;;;47.70;32.20;;;;;;;11.37;100.00;98570.52;107394;1273;101393;-81
2023/10/26 09:57:56;;;;;;;43.00;29.00;;;;;;;11.39;100.00;98572.00;107424;1272;100171;-81
2023/10/26 10:00:41;;;;;;;41.50;27.70;;;;;;;11.39;100.00;98569.05;107202;1273;97815;-80
2023/10/26 10:03:29;;;;;;;36.50;25.70;;;;;;;11.40;100.00;98568.85;107194;1274;95848;-80
2023/10/26 10:06:50;;;;;;;36.80;26.90;;;;;;;11.39;100.00;98561.65;107383;1272;95713;-79
2023/10/26 10:10:00;;;;;;;38.00;27.60;;;;;;;11.36;100.00;98561.27;107161;1274;102665;-81
2023/10/26 10:12:52;;;;;;;38.90;27.30;;;;;;;11.32;100.00;98554.94;107378;1273;100138;-81
2023/10/26 10:15:39;;;;;;;35.90;26.00;;;;;;;11.31;100.00;98552.17;107398;1273;97737;-80
2023/10/26 10:18:24;;;;;;;34.80;25.20;;;;;;;11.31;100.00;98547.13;107208;1272;95622;-81
2023/10/26 10:21:35;;;;;;;41.40;30.10;;;;;;;11.29;100.00;98543.35;107399;1272;95491;-81
2023/10/26 10:24:39;;;;;;;45.70;30.40;;;;;;;11.31;100.00;98536.84;107398;1273;102701;-81
2023/10/26 10:27:24;;;;;;;40.40;29.40;;;;;;;11.32;100.00;98533.53;107353;1273;99139;-81
2023/10/26 10:30:11;;;;;;;43.30;28.10;;;;;;;11.33;100.00;98530.45;107239;1273;97754;-81
2023/10/26 10:32:57;;;;;;;43.60;31.10;;;;;;;11.35;100.00;98527.47;107176;1276;95640;-81
2023/10/26 10:35:57;;;;;;;46.50;30.00;;;;;;;11.34;100.00;98530.05;107274;1276;95731;-92
2023/10/26 10:39:22;;;;;;;51.10;35.00;;;;;;;11.34;100.00;98527.23;107101;1273;102616;-89
2023/10/26 10:42:10;;;;;;;49.50;34.70;;;;;;;11.34;100.00;98523.98;106928;1273;167821;-90
2023/10/26 10:44:58;;;;;;;37.40;27.20;;;;;;;11.35;100.00;98524.21;107027;1276;97820;-90
2023/10/26 10:47:46;;;;;;;41.50;30.60;;;;;;;11.36;100.00;98520.86;107208;1276;95337;-91
2023/10/26 10:50:32;;;;;;;37.80;26.90;;;;;;;11.36;100.00;98517.52;107056;1279;96455;-89
2023/10/26 10:53:18;;;;;;;40.10;27.00;;;;;;;11.37;100.00;98514.48;106969;1276;101482;-87
2023/10/26 10:56:04;;;;;;;35.00;26.70;;;;;;;11.38;100.00;98515.95;107032;1273;99943;-87
2023/10/26 10:58:54;;;;;;;42.20;29.40;;;;;;;11.38;100.00;98514.83;106992;1273;98819;-89
2023/10/26 11:01:39;;;;;;;50.10;35.40;;;;;;;11.41;100.00;98513.27;107001;1273;95570;-88
2023/10/26 11:04:25;;;;;;;51.90;37.20;;;;;;;11.43;100.00;98510.10;107039;1272;95537;-89
2023/10/26 11:07:11;;;;;;;50.40;32.40;;;;;;;11.46;100.00;98510.58;107087;1273;102760;-90
2023/10/26 11:09:58;;;;;;;54.80;38.00;;;;;;;11.48;100.00;98509.63;107050;1273;100277;-88
2023/10/26 11:12:59;;;;;;;50.00;34.50;;;;;;;11.51;100.00;98510.60;107002;1273;98216;-90
2023/10/26 11:15:46;;;;;;;59.30;35.70;;;;;;;11.54;100.00;98509.46;107122;1275;95525;-89
2023/10/26 11:18:32;;;;;;;48.00;31.00;;;;;;;11.55;100.00;98504.51;106829;1274;95027;-88
2023/10/26 11:21:18;;;;;;;48.70;29.10;;;;;;;11.57;100.00;98499.42;107050;1273;102623;-89
2023/10/26 11:24:50;;;;;;;35.40;25.30;;;;;;;11.60;100.00;98499.16;107306;1271;100137;-91
2023/10/26 11:27:38;;;;;;;;;;;;;;;11.63;100.00;98495.89;107513;1272;97930;-90
2023/10/26 11:30:45;;;;;;;40.90;26.30;;;;;;;11.65;100.00;98495.02;107265;1273;95637;-81
2023/10/26 11:33:31;;;;;;;40.80;27.80;;;;;;;11.68;100.00;98495.02;107434;1272;95183;-82
2023/10/26 11:36:17;;;;;;;61.20;40.30;;;;;;;11.70;100.00;98491.73;107356;1273;102723;-81
2023/10/26 11:39:02;;;;;;;54.20;34.40;;;;;;;11.70;100.00;98486.31;107244;1274;99871;-81
2023/10/26 11:41:54;;;;;;;43.30;30.70;;;;;;;11.73;100.00;98490.21;107306;1272;98492;-81
2023/10/26 11:44:39;;;;;;;;;;;;;;;11.74;100.00;98491.68;107288;1273;95754;-81
2023/10/26 11:47:24;;;;;;;44.80;30.20;;;;;;;11.75;100.00;98491.05;107397;1272;95796;-81
2023/10/26 11:50:25;;;;;;;48.50;33.40;;;;;;;11.78;100.00;98487.89;107421;1273;101423;-82
2023/10/26 11:53:11;;;;;;;48.10;32.20;;;;;;;11.84;100.00;98488.84;107372;1274;99347;-82
2023/10/26 11:55:58;;;;;;;61.50;44.30;;;;;;;11.92;100.00;98487.34;107406;1273;97800;-82
2023/10/26 11:58:44;;;;;;;101.50;75.10;;;;;;;11.99;100.00;98484.23;107417;1273;95300;-81
2023/10/26 12:01:29;;;;;;;56.60;39.30;;;;;;;12.06;100.00;98484.11;107303;1273;96316;-82
2023/10/26 12:04:14;;;;;;;48.70;35.40;;;;;;;12.12;100.00;98482.30;107294;1273;104101;-82
2023/10/26 12:06:59;;;;;;;49.20;35.10;;;;;;;12.18;100.00;98478.37;107309;1272;99110;-82
2023/10/26 12:09:44;;;;;;;50.10;38.80;;;;;;;12.23;100.00;98478.70;107370;1273;98438;-81
2023/10/26 12:12:29;;;;;;;36.90;27.90;;;;;;;12.27;100.00;98473.18;107371;1276;95619;-82
2023/10/26 12:15:15;;;;;;;34.40;26.70;;;;;;;12.32;100.00;98470.98;107471;1271;95850;-82
2023/10/26 12:18:00;;;;;;;42.40;30.10;;;;;;;12.36;100.00;98469.13;107396;1273;103066;-81
2023/10/26 12:20:45;;;;;;;33.90;25.50;;;;;;;12.42;100.00;98470.35;107431;1273;100473;-82
2023/10/26 12:23:31;;;;;;;34.60;25.80;;;;;;;12.45;100.00;98469.11;107308;1273;97772;-82
2023/10/26 12:26:16;;;;;;;32.00;25.00;;;;;;;12.49;100.00;98471.09;107310;1273;95510;-82
2023/10/26 12:29:03;;;;;;;31.30;24.40;;;;;;;12.50;100.00;98469.44;107403;1275;95108;-81
2023/10/26 12:31:49;;;;;;;35.90;26.80;;;;;;;12.51;100.00;98467.78;107298;1276;101498;-82